This is the latest recevied weather packets stored in our database for station/object AI5KP-13. If no packets are shown the sender has not sent any weather packets the latest 10 day(s).
| Time | Temp. | Humidity | Pressure | Rain* | Wind** | Luminosity | Snow |
|---|---|---|---|---|---|---|---|
| 1777667923 | 19.44° C | 34% | 1015.8 hPa | 0 mm | - | 569 W/m² | - |
| 1777667621 | 19.44° C | 32% | 1016 hPa | 0 mm | - | 393 W/m² | - |
| 1777667318 | 20° C | 32% | 1016.4 hPa | 0 mm | - | 442 W/m² | - |
| 1777667015 | 20.56° C | 34% | 1016.5 hPa | 0 mm | - | 571 W/m² | - |
| 1777666712 | 20.56° C | 31% | 1016.6 hPa | 0 mm | - | 618 W/m² | - |
| 1777666408 | 20° C | 33% | 1016.7 hPa | 0 mm | - | 637 W/m² | - |
| 1777666105 | 20° C | 34% | 1016.9 hPa | 0 mm | - | 581 W/m² | - |
| 1777665801 | 20° C | 33% | 1017.1 hPa | 0 mm | - | 496 W/m² | - |
| 1777665494 | 19.44° C | 35% | 1017 hPa | 0 mm | - | 666 W/m² | - |
| 1777665190 | 21.11° C | 33% | 1017.2 hPa | 0 mm | - | 343 W/m² | - |
| 1777664886 | 20.56° C | 36% | 1017.2 hPa | 0 mm | - | 682 W/m² | - |
| 1777664582 | 21.11° C | 35% | 1017.4 hPa | 0 mm | - | 702 W/m² | - |
| 1777664279 | 20.56° C | 38% | 1017.6 hPa | 0 mm | - | 649 W/m² | - |
| 1777663977 | 20° C | 38% | 1017.7 hPa | 0 mm | - | 463 W/m² | - |
| 1777663674 | 20° C | 43% | 1017.7 hPa | 0 mm | - | 549 W/m² | - |
| 1777663370 | 18.89° C | 47% | 1017.7 hPa | 0 mm | - | 412 W/m² | - |
| 1777663068 | 19.44° C | 42% | 1017.9 hPa | 0 mm | - | 296 W/m² | - |
| 1777662765 | 18.89° C | 43% | 1018 hPa | 0 mm | - | 511 W/m² | - |
| 1777662462 | 20.56° C | 41% | 1017.8 hPa | 0 mm | - | 476 W/m² | - |
| 1777662157 | 21.11° C | 41% | 1017.8 hPa | 0 mm | - | 598 W/m² | - |
| 1777661853 | 19.44° C | 44% | 1018.1 hPa | 0 mm | - | 437 W/m² | - |
| 1777661549 | 20° C | 38% | 1018.1 hPa | 0 mm | - | 371 W/m² | - |
| 1777661246 | 19.44° C | 44% | 1018.1 hPa | 0 mm | - | 440 W/m² | - |
| 1777660941 | 19.44° C | 43% | 1018.1 hPa | 0 mm | - | 537 W/m² | - |
| 1777660637 | 20° C | 39% | 1018.2 hPa | 0 mm | - | 605 W/m² | - |
* Rain latest hour (hover to see other rain measurements)
** Current wind speed in m/s (hover to see current wind gust speed)